LGKOLGKF

Guest
Details From LGKO - KOS
To LGKF - Kefallinia
Flight Number -
Tags generated
Created
Modified
Stats Distance 329 nm / 610 km
Max Altitude 34,000 ft / 10,363 m
Waypoints 7
Social Downloads 0
Likes 0
Share VATSIM

Download

Looking for another format? Having issues loading an existing format? Contact us
Advertisement - Login to hide

Notes

Basic altitude profile: - Ascent Rate: 2500ft/min - Ascent Speed: 250kts - Cruise Altitude: 35000ft - Cruise Speed: 420kts - Descent Rate: 1500ft/min - Descent Speed: 250kts Options: - Use NATs: yes - Use PACOTS: yes - Use low airways: yes - Use high airways: yes

Route

LGKO VARIX UL995 ATV UG8 RILIN LGKF

ID Type Via Altitude Latitude Longitude Leg Dist Tot Dist Heading (true) Name
O LGKO APT - 0 ft / 0 m 36.79440˚ 27.09076˚ - 0 nm - KOS
VARIX FIX - 34,000 ft / 10,363 m 37.36389˚ 25.03417˚ 104 nm 104 nm 290° / 289° -
KEA VOR UL995 (AWY-HI) 34,000 ft / 10,363 m 37.55719˚ 24.29783˚ 36 nm 141 nm 289° / 288° KEA VOR-DME
ATV VOR UL995 (AWY-HI) 32,700 ft / 9,967 m 37.88861˚ 23.81444˚ 30 nm 171 nm 311° / 311° ATHINAI VOR-DME
KOR NDB UG8 (AWY-HI) 24,800 ft / 7,559 m 37.93028˚ 22.93583˚ 41 nm 213 nm 274° / 273° KORINTHOS NDB
RILIN FIX UG8 (AWY-HI) 24,500 ft / 7,468 m 37.96500˚ 22.66667˚ 12 nm 226 nm 279° / 279° -
O LGKF APT - 0 ft / 0 m 38.12007˚ 20.50048˚ 102 nm 329 nm 276° / 275° Kefallinia

Altitude Profile

Advertisement - Login to hide

Weather


0- 5 10 15 20 25 30 35+ Temperature / ° C

Clouds and Precipitation
Forecast for 2017-12-12 12:00 UTC. Updated 41 minutes ago

Ground ~20,000 ft ~40,000 ft Winds

LGKO

Details ICAO LGKO (KGS)
Name KOS
Region Greece
Timezone Europe/Athens (UTC+2.0)
Stats Elevation 412 ft / 126 m (AMSL)
Location 36.794403° 27.090764°
Runways 1
Magnetic Variation 4.723° E

METAR

LGKO 121150Z 29006KT 9999 FEW015 SCT020 17/13 Q1023

Decode

TAF

TAF LGKO 121100Z 1212/1312 VRB03KT 9999 FEW015 SCT020 BECMG 1219/1221 31013KT

Decode

Departure Runways

ID Width Length Bearing (true) Bearing (mag) Surface Threshold Offset Overrun Length
14 148 ft / 45 m 7,923 ft / 2,415 m 148.29° 143.57° Asphalt 0 ft / 0 m 240 ft / 73 m
32 148 ft / 45 m 7,923 ft / 2,415 m 328.30° 323.58° Asphalt 0 ft / 0 m 205 ft / 62 m

LGKF

Details ICAO LGKF (EFL)
Name Kefallinia
Region Greece
Timezone Europe/Athens (UTC+2.0)
Stats Elevation 59 ft / 18 m (AMSL)
Location 38.120069° 20.500480°
Runways 1
Magnetic Variation 4.051° E

METAR

LGKF 121150Z 15006KT 9999 FEW016 SCT070 18/15 Q1023

Decode

TAF

Not found

Destination Runways

ID Width Length Bearing (true) Bearing (mag) Surface Threshold Offset Overrun Length
14 148 ft / 45 m 7,979 ft / 2,432 m 146.39° 142.34° Asphalt 0 ft / 0 m 180 ft / 55 m
32 148 ft / 45 m 7,979 ft / 2,432 m 326.40° 322.35° Asphalt 912 ft / 278 m 100 ft / 30 m